Time;durP1;ratioP1;P1;durP2;ratioP2;P2;SDS_P1;SDS_P2;PMS_P1;PMS_P2;Temp;Humidity;BMP_temperature;BMP_pressure;BME280_temperature;BME280_humidity;BME280_pressure;Samples;Min_cycle;Max_cycle;Signal;HPM_P1;HPM_P2
2021/09/24 00:00:38;;;;;;;6.10;5.60;;;13.60;99.90;;;;;;6222254;28;20510;-60
2021/09/24 00:03:41;;;;;;;5.63;4.47;;;13.60;99.90;;;;;;6203147;28;20587;-61
2021/09/24 00:06:45;;;;;;;5.37;4.87;;;13.60;99.90;;;;;;6204167;28;20476;-62
2021/09/24 00:09:50;;;;;;;6.70;5.07;;;13.70;99.90;;;;;;6204343;28;20563;-59
2021/09/24 00:12:53;;;;;;;5.30;4.80;;;13.70;99.90;;;;;;6204806;28;20491;-60
2021/09/24 00:15:56;;;;;;;5.10;4.60;;;13.60;99.90;;;;;;6204420;28;20468;-60
2021/09/24 00:18:59;;;;;;;6.40;5.80;;;13.50;99.90;;;;;;6204767;28;20614;-60
2021/09/24 00:22:03;;;;;;;5.90;5.30;;;13.60;99.90;;;;;;6204410;28;20822;-60
2021/09/24 00:25:09;;;;;;;5.83;5.33;;;13.50;99.90;;;;;;6204287;28;20488;-60
2021/09/24 00:28:12;;;;;;;5.83;4.63;;;13.60;99.90;;;;;;6204412;28;20807;-60
2021/09/24 00:31:16;;;;;;;5.67;5.17;;;13.50;99.90;;;;;;6203840;28;20487;-61
2021/09/24 00:34:19;;;;;;;6.63;4.30;;;13.40;99.90;;;;;;6204184;28;20519;-60
2021/09/24 00:37:23;;;;;;;8.43;4.80;;;13.40;99.90;;;;;;6204020;28;20488;-60
2021/09/24 00:40:27;;;;;;;5.00;4.60;;;13.50;99.90;;;;;;6200490;28;20493;-60
2021/09/24 00:43:30;;;;;;;5.23;4.80;;;13.50;99.90;;;;;;6179512;28;20492;-60
2021/09/24 00:46:34;;;;;;;5.80;5.20;;;13.50;99.90;;;;;;6180055;28;20492;-61
2021/09/24 00:49:54;;;;;;;5.20;4.70;;;13.40;99.90;;;;;;6185980;28;20467;-60
2021/09/24 00:52:57;;;;;;;5.67;5.17;;;13.40;99.90;;;;;;6194559;28;20733;-62
2021/09/24 00:56:02;;;;;;;5.43;4.40;;;13.30;99.90;;;;;;6204043;28;20441;-61
2021/09/24 00:59:05;;;;;;;5.80;5.23;;;13.30;99.90;;;;;;6203443;28;20453;-67
2021/09/24 01:02:08;;;;;;;4.70;4.30;;;13.30;99.90;;;;;;6196322;28;20470;-62
2021/09/24 01:05:13;;;;;;;5.57;5.07;;;13.30;99.90;;;;;;6182515;28;20956;-63
2021/09/24 01:08:17;;;;;;;5.50;4.67;;;13.30;99.90;;;;;;6189144;28;20469;-62
2021/09/24 01:11:21;;;;;;;5.83;4.50;;;13.30;99.90;;;;;;6184970;28;20473;-62
2021/09/24 01:14:28;;;;;;;4.77;4.33;;;13.40;99.90;;;;;;6187070;28;20925;-62
2021/09/24 01:17:31;;;;;;;6.30;5.10;;;13.50;99.90;;;;;;6186544;28;20958;-62
2021/09/24 01:20:34;;;;;;;7.53;5.00;;;13.50;99.90;;;;;;6191240;28;21016;-62
2021/09/24 01:23:40;;;;;;;6.13;5.53;;;13.50;99.90;;;;;;6193345;28;20465;-62
2021/09/24 01:26:47;;;;;;;6.70;5.30;;;13.50;99.90;;;;;;6179797;28;20515;-62
2021/09/24 01:29:51;;;;;;;6.03;5.27;;;13.50;99.90;;;;;;6153805;29;20489;-62
2021/09/24 01:32:55;;;;;;;5.17;4.73;;;13.40;99.90;;;;;;6153601;29;20479;-62
2021/09/24 01:35:58;;;;;;;8.23;5.10;;;13.40;99.90;;;;;;6153490;29;20820;-62
2021/09/24 01:39:04;;;;;;;6.17;4.90;;;13.40;99.90;;;;;;6153541;29;20815;-62
2021/09/24 01:42:08;;;;;;;5.37;4.97;;;13.40;99.90;;;;;;6170091;28;20508;-62
2021/09/24 01:45:13;;;;;;;8.33;5.23;;;13.40;99.90;;;;;;6177143;28;21023;-62
2021/09/24 01:48:16;;;;;;;5.40;4.77;;;13.50;99.90;;;;;;6177264;28;20479;-62
2021/09/24 01:51:19;;;;;;;5.27;4.77;;;13.50;99.90;;;;;;6177320;28;20485;-62
2021/09/24 01:54:24;;;;;;;4.93;4.50;;;13.50;99.90;;;;;;6175998;28;20493;-62
2021/09/24 01:57:27;;;;;;;6.10;5.00;;;13.40;99.90;;;;;;6172839;28;20466;-62
2021/09/24 02:00:30;;;;;;;6.60;5.70;;;13.40;99.90;;;;;;6176869;28;20500;-63
2021/09/24 02:03:33;;;;;;;7.00;6.33;;;13.50;99.90;;;;;;6176944;28;20473;-62
2021/09/24 02:06:37;;;;;;;6.53;5.60;;;13.40;99.90;;;;;;6177104;28;20609;-62
2021/09/24 02:09:42;;;;;;;7.90;6.07;;;13.40;99.90;;;;;;6176904;28;20560;-62
2021/09/24 02:12:45;;;;;;;5.03;4.53;;;13.40;99.90;;;;;;6180025;28;20805;-62
2021/09/24 02:15:49;;;;;;;5.83;5.33;;;13.40;99.90;;;;;;6176366;28;20478;-63
2021/09/24 02:18:52;;;;;;;5.93;5.30;;;13.40;99.90;;;;;;6176497;28;20564;-62
2021/09/24 02:21:57;;;;;;;7.13;5.50;;;13.40;99.90;;;;;;6176830;28;20534;-62
2021/09/24 02:25:02;;;;;;;4.57;4.13;;;13.30;99.90;;;;;;6176591;28;20488;-62
2021/09/24 02:28:05;;;;;;;5.67;5.10;;;13.20;99.90;;;;;;6170166;28;20473;-62
2021/09/24 02:31:09;;;;;;;7.30;5.40;;;13.20;99.90;;;;;;6177763;28;20478;-62
2021/09/24 02:34:13;;;;;;;5.33;4.83;;;13.20;99.90;;;;;;6176842;28;20625;-62
2021/09/24 02:37:16;;;;;;;6.73;4.90;;;13.20;99.90;;;;;;6177849;28;20469;-62
2021/09/24 02:40:20;;;;;;;5.40;4.90;;;13.10;99.90;;;;;;6177189;28;20477;-62
2021/09/24 02:43:24;;;;;;;7.27;5.20;;;13.20;99.90;;;;;;6177414;28;20480;-62
2021/09/24 02:46:28;;;;;;;6.20;5.60;;;13.20;99.90;;;;;;6177337;28;20481;-62
2021/09/24 02:49:31;;;;;;;5.47;4.83;;;13.30;99.90;;;;;;6177104;28;20473;-62
2021/09/24 02:52:34;;;;;;;6.07;5.50;;;13.20;99.90;;;;;;6179720;28;20476;-63
2021/09/24 02:55:39;;;;;;;6.43;4.73;;;13.10;99.90;;;;;;6201672;28;20478;-62
2021/09/24 02:58:42;;;;;;;5.63;4.77;;;13.10;99.90;;;;;;6200944;28;20611;-62
2021/09/24 03:01:45;;;;;;;7.80;5.60;;;13.10;99.90;;;;;;6195244;28;20480;-62
2021/09/24 03:04:49;;;;;;;6.40;5.80;;;13.10;99.90;;;;;;6201175;28;20897;-62
2021/09/24 03:07:52;;;;;;;6.40;5.60;;;13.00;99.90;;;;;;6201179;28;20488;-62
2021/09/24 03:10:57;;;;;;;5.97;5.43;;;13.00;99.90;;;;;;6201016;28;20768;-62
2021/09/24 03:14:00;;;;;;;6.80;5.27;;;13.00;99.90;;;;;;6201091;28;20457;-62
2021/09/24 03:17:03;;;;;;;4.80;4.30;;;13.10;99.90;;;;;;6193689;28;20441;-62
2021/09/24 03:20:09;;;;;;;5.80;5.20;;;13.10;99.90;;;;;;6200747;28;20483;-62
2021/09/24 03:23:12;;;;;;;5.37;4.90;;;13.10;99.90;;;;;;6200958;28;20897;-62
2021/09/24 03:26:18;;;;;;;4.47;4.07;;;13.10;99.90;;;;;;6201127;28;20476;-62
2021/09/24 03:29:21;;;;;;;7.23;4.90;;;13.10;99.90;;;;;;6201275;28;20481;-62
2021/09/24 03:32:24;;;;;;;7.43;5.17;;;13.10;99.90;;;;;;6201034;28;20483;-62
2021/09/24 03:35:28;;;;;;;6.87;4.67;;;13.20;99.90;;;;;;6200806;28;20627;-62
2021/09/24 03:38:32;;;;;;;6.17;4.97;;;13.00;99.90;;;;;;6200941;28;20857;-63
2021/09/24 03:41:36;;;;;;;6.30;5.30;;;13.00;99.90;;;;;;6213412;28;20472;-62
2021/09/24 03:44:40;;;;;;;5.87;5.27;;;12.90;99.90;;;;;;6225151;28;20611;-62
2021/09/24 03:47:43;;;;;;;6.13;5.40;;;12.80;99.90;;;;;;6225216;28;20468;-62
2021/09/24 03:50:46;;;;;;;5.60;5.10;;;12.80;99.90;;;;;;6225027;28;20507;-62
2021/09/24 03:53:49;;;;;;;6.43;5.47;;;12.80;99.90;;;;;;6224719;28;20486;-62
2021/09/24 03:56:54;;;;;;;9.13;4.87;;;12.70;99.90;;;;;;6224945;28;20471;-62
2021/09/24 03:59:57;;;;;;;5.57;5.07;;;12.70;99.90;;;;;;6224579;28;20968;-62
2021/09/24 04:03:00;;;;;;;7.13;5.03;;;12.70;99.90;;;;;;6220676;28;20464;-62
2021/09/24 04:06:04;;;;;;;7.80;4.67;;;12.70;99.90;;;;;;6216901;28;20479;-62
2021/09/24 04:09:07;;;;;;;7.60;5.13;;;12.60;99.90;;;;;;6224866;28;20998;-62
2021/09/24 04:12:12;;;;;;;5.00;4.53;;;12.60;99.90;;;;;;6224685;28;20476;-62
2021/09/24 04:15:15;;;;;;;6.10;5.23;;;12.60;99.90;;;;;;6225249;28;20479;-62
2021/09/24 04:18:18;;;;;;;5.10;4.47;;;12.60;99.90;;;;;;6226630;28;20468;-68
2021/09/24 04:21:21;;;;;;;9.00;5.00;;;12.50;99.90;;;;;;6229103;28;20831;-62
2021/09/24 04:24:24;;;;;;;11.60;7.23;;;12.60;99.90;;;;;;6228865;28;20468;-62
2021/09/24 04:27:29;;;;;;;8.80;7.00;;;12.60;99.90;;;;;;6228984;28;20475;-62
2021/09/24 04:30:32;;;;;;;12.60;7.57;;;12.50;99.90;;;;;;6228816;28;20479;-62
2021/09/24 04:33:35;;;;;;;8.33;6.37;;;12.50;99.90;;;;;;6228911;28;20546;-62
2021/09/24 04:36:39;;;;;;;6.70;6.00;;;12.50;99.90;;;;;;6229114;28;20468;-62
2021/09/24 04:39:42;;;;;;;6.20;4.83;;;12.50;99.90;;;;;;6228810;28;20487;-62
2021/09/24 04:42:47;;;;;;;6.10;5.50;;;12.40;99.90;;;;;;6228634;28;20486;-62
2021/09/24 04:45:50;;;;;;;7.57;5.03;;;12.40;99.90;;;;;;6229058;28;20950;-60
2021/09/24 04:48:53;;;;;;;4.93;4.43;;;12.40;99.90;;;;;;6228382;28;20950;-61
2021/09/24 04:51:56;;;;;;;5.03;4.43;;;12.30;99.90;;;;;;6228738;28;20491;-61
2021/09/24 04:54:59;;;;;;;4.73;4.33;;;12.20;99.90;;;;;;6228564;28;20541;-61
2021/09/24 04:58:04;;;;;;;5.50;4.80;;;12.20;99.90;;;;;;6228566;28;20484;-61
2021/09/24 05:01:07;;;;;;;7.37;5.37;;;12.10;99.90;;;;;;6228669;28;20479;-61
2021/09/24 05:04:15;;;;;;;5.90;4.67;;;12.00;99.90;;;;;;6228391;28;20472;-61
2021/09/24 05:07:18;;;;;;;6.00;4.60;;;12.00;99.90;;;;;;6228025;28;20490;-61
2021/09/24 05:10:21;;;;;;;6.50;4.57;;;12.00;99.90;;;;;;6227841;28;20491;-61
2021/09/24 05:13:25;;;;;;;7.50;5.77;;;12.00;99.90;;;;;;6228181;28;20472;-61
2021/09/24 05:16:28;;;;;;;7.40;5.37;;;12.00;99.90;;;;;;6227633;28;20476;-62
2021/09/24 05:19:32;;;;;;;7.40;5.30;;;12.10;99.90;;;;;;6228076;28;20483;-61
2021/09/24 05:22:35;;;;;;;5.03;4.60;;;12.10;99.90;;;;;;6227289;28;20987;-61
2021/09/24 05:25:38;;;;;;;7.30;5.00;;;12.20;99.90;;;;;;6227434;28;20850;-62
2021/09/24 05:28:42;;;;;;;5.87;5.17;;;12.20;99.90;;;;;;6227200;28;20476;-62
2021/09/24 05:31:46;;;;;;;5.20;4.40;;;12.20;99.90;;;;;;6227797;28;20484;-61
2021/09/24 05:34:49;;;;;;;5.40;4.87;;;12.20;99.90;;;;;;6226869;28;20778;-61
2021/09/24 05:37:52;;;;;;;5.67;4.40;;;12.20;99.90;;;;;;6227497;28;20448;-63
2021/09/24 05:40:55;;;;;;;5.33;3.93;;;12.30;99.90;;;;;;6227277;28;20487;-62
2021/09/24 05:44:00;;;;;;;8.50;5.27;;;12.20;99.90;;;;;;6227293;28;20444;-61
2021/09/24 05:47:03;;;;;;;6.27;5.13;;;12.10;99.90;;;;;;6227512;28;20498;-61
2021/09/24 05:50:11;;;;;;;5.70;4.83;;;12.20;99.90;;;;;;6226656;28;20475;-63
2021/09/24 05:53:15;;;;;;;9.90;7.00;;;12.30;99.90;;;;;;6226774;28;20951;-63
2021/09/24 05:56:18;;;;;;;7.50;6.40;;;12.30;99.90;;;;;;6226584;28;20495;-62
2021/09/24 05:59:23;;;;;;;14.50;6.37;;;12.30;99.90;;;;;;6215905;28;20534;-62
2021/09/24 06:02:26;;;;;;;8.17;6.60;;;12.30;99.90;;;;;;6223965;28;20483;-63
2021/09/24 06:05:30;;;;;;;6.43;5.30;;;12.40;99.90;;;;;;6214822;28;20464;-62
2021/09/24 06:08:33;;;;;;;6.50;5.70;;;12.50;99.90;;;;;;6212409;28;20487;-62
2021/09/24 06:11:36;;;;;;;5.57;5.07;;;12.60;99.90;;;;;;6212915;28;20480;-61
2021/09/24 06:14:41;;;;;;;7.73;6.70;;;12.70;99.90;;;;;;6213801;28;20948;-62
2021/09/24 06:17:44;;;;;;;8.60;6.07;;;12.80;99.90;;;;;;6215400;28;20480;-61
2021/09/24 06:20:47;;;;;;;13.13;6.20;;;13.00;99.90;;;;;;6215239;28;20965;-62
2021/09/24 06:23:50;;;;;;;11.00;7.10;;;13.00;99.90;;;;;;6213343;28;20487;-63
2021/09/24 06:26:54;;;;;;;7.93;6.40;;;13.10;99.90;;;;;;6216007;28;20480;-63
2021/09/24 06:29:59;;;;;;;12.03;6.77;;;13.20;99.90;;;;;;6213529;28;20469;-62
2021/09/24 06:33:02;;;;;;;8.17;5.93;;;13.30;99.90;;;;;;6213623;28;20965;-61
2021/09/24 06:36:05;;;;;;;8.27;5.80;;;13.40;99.90;;;;;;6211875;28;20807;-62
2021/09/24 06:39:09;;;;;;;8.97;5.80;;;13.50;99.90;;;;;;6212517;28;20471;-63
2021/09/24 06:42:12;;;;;;;7.87;6.60;;;13.60;99.90;;;;;;6203520;28;20961;-63
2021/09/24 06:45:17;;;;;;;9.53;6.57;;;13.90;99.90;;;;;;6199330;28;20763;-63
2021/09/24 06:48:20;;;;;;;9.60;8.27;;;14.20;99.90;;;;;;6201235;28;20480;-63
2021/09/24 06:51:23;;;;;;;8.83;7.40;;;14.40;99.90;;;;;;6200629;28;20993;-61
2021/09/24 06:54:27;;;;;;;11.27;9.00;;;15.10;99.90;;;;;;6201003;28;20465;-61
2021/09/24 06:57:30;;;;;;;11.23;7.83;;;17.30;99.90;;;;;;6200910;28;20473;-62
2021/09/24 07:00:35;;;;;;;15.00;9.43;;;19.40;95.30;;;;;;6201133;28;20953;-62
2021/09/24 07:03:38;;;;;;;11.13;8.77;;;21.40;90.90;;;;;;6200790;28;21003;-62
2021/09/24 07:06:43;;;;;;;9.97;9.07;;;22.40;83.50;;;;;;6201548;28;20605;-62
2021/09/24 07:09:46;;;;;;;9.77;8.77;;;24.50;73.80;;;;;;6225004;28;20236;-62
2021/09/24 07:12:49;;;;;;;9.70;7.63;;;26.50;62.90;;;;;;6225555;28;20248;-62
2021/09/24 07:15:53;;;;;;;8.47;7.63;;;28.00;56.30;;;;;;6220714;28;20685;-63
2021/09/24 07:18:57;;;;;;;9.10;8.30;;;29.20;52.10;;;;;;6225188;28;20229;-63
2021/09/24 07:22:00;;;;;;;8.90;8.00;;;30.70;47.60;;;;;;6225179;28;20228;-63
2021/09/24 07:25:04;;;;;;;8.60;7.80;;;30.20;46.30;;;;;;6224853;28;20235;-62
2021/09/24 07:28:07;;;;;;;9.73;7.50;;;31.00;44.60;;;;;;6224728;28;20235;-62
2021/09/24 07:31:12;;;;;;;10.63;8.50;;;32.60;41.40;;;;;;6224746;28;20242;-63
2021/09/24 07:34:15;;;;;;;11.85;6.90;;;33.60;38.30;;;;;;6210768;28;20571;-62
2021/09/24 07:37:18;;;;;;;11.15;8.18;;;33.70;36.90;;;;;;6200315;28;20240;-62
2021/09/24 07:40:22;;;;;;;10.23;8.65;;;34.20;35.80;;;;;;6200151;28;20681;-62
2021/09/24 07:43:25;;;;;;;12.07;8.30;;;34.60;35.00;;;;;;6200686;28;20237;-62
2021/09/24 07:46:29;;;;;;;12.68;6.43;;;35.70;33.20;;;;;;6200357;28;20279;-64
2021/09/24 07:49:33;;;;;;;10.75;6.55;;;36.40;31.50;;;;;;6200411;28;20240;-62
2021/09/24 07:52:36;;;;;;;7.03;5.90;;;36.90;29.70;;;;;;6202574;28;20307;-62
2021/09/24 07:55:39;;;;;;;8.93;5.47;;;37.10;29.40;;;;;;6204809;28;20242;-62
2021/09/24 07:58:42;;;;;;;8.35;5.63;;;38.00;28.50;;;;;;6204945;28;20233;-64
2021/09/24 08:01:48;;;;;;;6.43;5.78;;;39.20;28.00;;;;;;6208267;28;20304;-64
2021/09/24 08:04:51;;;;;;;7.43;5.97;;;40.00;26.60;;;;;;6219042;28;20232;-64
2021/09/24 08:07:54;;;;;;;6.47;5.60;;;40.90;25.80;;;;;;6223247;28;20243;-64
2021/09/24 08:10:58;;;;;;;5.88;5.35;;;41.40;25.10;;;;;;6216605;28;20220;-64
2021/09/24 08:14:02;;;;;;;6.43;5.82;;;42.50;24.20;;;;;;6225691;28;20266;-63
2021/09/24 08:17:06;;;;;;;5.45;5.03;;;43.40;23.20;;;;;;6194970;28;20508;-62
2021/09/24 08:20:11;;;;;;;5.25;4.72;;;44.30;22.10;;;;;;6204489;28;20557;-63
2021/09/24 08:23:16;;;;;;;9.38;4.93;;;44.60;21.30;;;;;;6204545;28;20228;-62
2021/09/24 08:26:19;;;;;;;6.53;4.22;;;45.00;21.00;;;;;;6204890;28;20235;-64
2021/09/24 08:29:22;;;;;;;8.95;5.63;;;45.90;20.70;;;;;;6204386;28;20236;-62
2021/09/24 08:32:26;;;;;;;5.18;4.53;;;46.70;19.80;;;;;;6204008;28;20245;-64
2021/09/24 08:35:30;;;;;;;6.10;4.50;;;47.30;19.60;;;;;;6204270;28;20246;-63
2021/09/24 08:38:33;;;;;;;4.97;4.18;;;47.90;18.70;;;;;;6203788;28;20665;-62
2021/09/24 08:41:37;;;;;;;8.27;4.53;;;48.10;18.50;;;;;;6204022;28;20240;-62
2021/09/24 08:44:41;;;;;;;5.10;4.60;;;48.40;18.10;;;;;;6204212;28;20292;-65
2021/09/24 08:47:45;;;;;;;6.03;4.65;;;48.90;17.60;;;;;;6203601;28;20243;-62
2021/09/24 08:50:50;;;;;;;6.97;4.20;;;49.20;17.60;;;;;;6179826;28;20232;-63
2021/09/24 08:53:53;;;;;;;6.10;3.65;;;50.10;17.10;;;;;;6179423;28;20244;-64
2021/09/24 08:56:58;;;;;;;6.65;3.35;;;50.40;16.20;;;;;;6179250;28;20319;-63
2021/09/24 09:00:02;;;;;;;4.50;3.85;;;50.60;16.20;;;;;;6187604;28;20235;-63
2021/09/24 09:03:10;;;;;;;4.20;3.38;;;51.10;16.10;;;;;;6202800;28;20685;-65
2021/09/24 09:06:17;;;;;;;6.47;4.25;;;50.80;16.10;;;;;;6203789;28;20310;-66
2021/09/24 09:09:33;;;;;;;10.20;4.47;;;50.80;16.30;;;;;;6225433;28;20233;-65
2021/09/24 09:12:36;;;;;;;4.28;3.90;;;51.50;16.40;;;;;;6227442;28;20236;-64
2021/09/24 09:15:40;;;;;;;7.65;5.20;;;52.20;15.90;;;;;;6228092;28;20241;-65
2021/09/24 09:18:49;;;;;;;13.13;5.00;;;52.20;16.20;;;;;;6227516;28;20244;-67
2021/09/24 09:21:52;;;;;;;5.80;4.78;;;52.10;16.50;;;;;;6227192;28;20352;-64
2021/09/24 09:24:55;;;;;;;7.07;4.60;;;51.80;16.50;;;;;;6203143;28;20565;-66
2021/09/24 09:28:00;;;;;;;10.73;6.15;;;50.90;17.10;;;;;;6202087;28;20567;-64
2021/09/24 09:31:15;;;;;;;5.70;5.18;;;50.70;17.60;;;;;;6201261;28;20251;-64
2021/09/24 09:34:33;;;;;;;5.47;4.15;;;51.10;17.50;;;;;;6191220;28;20235;-65
2021/09/24 09:37:38;;;;;;;3.35;3.08;;;51.20;16.50;;;;;;6200654;28;20638;-65
2021/09/24 09:40:41;;;;;;;5.80;3.15;;;50.40;16.30;;;;;;6195302;28;20237;-64
2021/09/24 09:43:47;;;;;;;6.05;3.40;;;51.70;16.20;;;;;;6178046;28;20528;-63
2021/09/24 09:46:50;;;;;;;3.30;3.10;;;52.20;15.90;;;;;;6178375;28;20222;-64
2021/09/24 09:50:07;;;;;;;3.38;3.17;;;52.70;15.20;;;;;;6178439;28;20708;-64
2021/09/24 09:53:12;;;;;;;3.80;3.35;;;51.00;15.50;;;;;;6178154;28;20233;-63
2021/09/24 09:56:18;;;;;;;4.40;2.95;;;50.70;15.40;;;;;;6178129;28;20248;-65
2021/09/24 09:59:27;;;;;;;4.30;3.42;;;51.80;15.10;;;;;;6178082;28;20401;-66
2021/09/24 10:02:32;;;;;;;3.58;3.28;;;53.30;15.00;;;;;;6177771;28;20304;-65
2021/09/24 10:05:39;;;;;;;3.10;2.90;;;54.50;14.70;;;;;;6178092;28;20233;-66
2021/09/24 10:08:42;;;;;;;3.60;2.78;;;55.00;14.00;;;;;;6194922;28;20233;-66
2021/09/24 10:11:46;;;;;;;3.25;2.90;;;55.50;13.50;;;;;;6201807;28;20587;-66
2021/09/24 10:14:51;;;;;;;4.15;2.92;;;55.70;13.50;;;;;;6201256;28;20580;-66
2021/09/24 10:17:54;;;;;;;2.88;2.60;;;55.50;12.90;;;;;;6201734;28;20247;-66
2021/09/24 10:20:59;;;;;;;4.03;2.65;;;53.80;13.60;;;;;;6202257;28;20236;-67
2021/09/24 10:24:03;;;;;;;4.90;2.22;;;54.70;13.50;;;;;;6189522;28;20228;-66
2021/09/24 10:27:08;;;;;;;4.10;2.40;;;53.40;13.70;;;;;;6202140;28;20295;-66
2021/09/24 10:30:13;;;;;;;3.15;2.42;;;52.70;14.30;;;;;;6201261;28;20259;-66
2021/09/24 10:33:18;;;;;;;4.07;2.55;;;52.70;14.50;;;;;;6195516;28;20252;-66
2021/09/24 10:36:44;;;;;;;3.15;2.17;;;53.00;13.80;;;;;;6177640;28;20229;-66
2021/09/24 10:39:48;;;;;;;2.45;2.35;;;53.20;13.10;;;;;;6177132;28;20221;-66
2021/09/24 10:42:55;;;;;;;2.92;2.72;;;53.10;13.70;;;;;;6199025;28;20704;-66
2021/09/24 10:45:58;;;;;;;2.22;2.13;;;53.10;13.50;;;;;;6183743;28;20284;-65
2021/09/24 10:49:29;;;;;;;2.30;2.20;;;52.30;13.20;;;;;;6194587;28;20239;-67
2021/09/24 10:52:48;;;;;;;5.13;2.40;;;51.40;13.50;;;;;;6201245;28;20237;-66
2021/09/24 10:56:21;;;;;;;2.92;2.50;;;51.50;13.60;;;;;;6177447;28;20240;-66
2021/09/24 10:59:29;;;;;;;2.92;2.72;;;51.10;13.60;;;;;;6198175;28;20231;-63
2021/09/24 11:02:39;;;;;;;3.47;2.40;;;50.20;14.00;;;;;;6182735;28;20264;-66
2021/09/24 11:06:01;;;;;;;2.65;2.45;;;49.70;14.20;;;;;;6201203;28;20260;-64
2021/09/24 11:09:09;;;;;;;4.32;2.55;;;49.90;14.20;;;;;;6201227;28;20237;-65
2021/09/24 11:12:12;;;;;;;2.83;2.67;;;49.30;14.70;;;;;;6201042;28;20293;-65
2021/09/24 11:15:16;;;;;;;2.90;2.70;;;49.80;14.40;;;;;;6201069;28;20245;-65
2021/09/24 11:18:45;;;;;;;3.20;2.17;;;49.60;14.60;;;;;;6200913;28;20240;-65
2021/09/24 11:22:12;;;;;;;2.53;2.30;;;49.30;15.00;;;;;;6200915;28;20237;-65
2021/09/24 11:25:16;;;;;;;2.53;2.33;;;47.40;15.60;;;;;;6201107;28;20575;-64
2021/09/24 11:28:33;;;;;;;3.20;2.90;;;47.60;15.50;;;;;;6204669;28;20241;-67
2021/09/24 11:32:18;;;;;;;2.85;2.65;;;48.20;15.30;;;;;;6201561;28;20228;-68
2021/09/24 11:35:29;;;;;;;2.80;2.60;;;46.80;16.00;;;;;;6176838;28;20220;-65
2021/09/24 11:38:33;;;;;;;2.70;2.50;;;46.50;16.20;;;;;;6186947;28;20245;-65
2021/09/24 11:41:38;;;;;;;3.10;2.80;;;47.00;16.30;;;;;;6205346;28;20242;-66
2021/09/24 11:44:44;;;;;;;2.45;2.25;;;47.60;15.90;;;;;;6205444;28;20243;-65
2021/09/24 11:47:57;;;;;;;3.03;2.83;;;47.10;15.90;;;;;;6205594;28;20241;-65
2021/09/24 11:51:15;;;;;;;2.80;2.60;;;47.50;16.00;;;;;;6205879;28;20243;-66
2021/09/24 11:54:22;;;;;;;2.70;2.50;;;49.10;15.30;;;;;;6205236;28;20242;-67
2021/09/24 11:57:26;;;;;;;2.65;2.45;;;48.30;15.40;;;;;;6205403;28;20238;-65
2021/09/24 12:00:31;;;;;;;2.38;2.28;;;47.00;15.40;;;;;;6228026;28;20236;-64
2021/09/24 12:03:35;;;;;;;4.30;2.72;;;46.20;16.90;;;;;;6254006;28;20226;-64
2021/09/24 12:06:40;;;;;;;2.20;2.10;;;46.70;16.20;;;;;;6253405;28;20713;-65
2021/09/24 12:09:43;;;;;;;3.13;2.72;;;47.10;16.20;;;;;;6252643;28;20234;-64
2021/09/24 12:12:47;;;;;;;2.95;2.65;;;48.40;15.70;;;;;;6229309;28;20240;-64
2021/09/24 12:15:52;;;;;;;2.75;2.47;;;48.60;15.20;;;;;;6229058;28;20242;-64
2021/09/24 12:18:58;;;;;;;3.13;2.58;;;46.10;16.00;;;;;;6229143;28;20306;-64
2021/09/24 12:22:04;;;;;;;4.70;2.45;;;45.90;16.70;;;;;;6228780;28;20236;-65
2021/09/24 12:25:16;;;;;;;4.22;2.70;;;46.40;16.50;;;;;;6228960;28;20238;-64
2021/09/24 12:28:20;;;;;;;2.30;2.10;;;47.30;15.90;;;;;;6228869;28;20579;-65
2021/09/24 12:31:38;;;;;;;3.05;2.85;;;48.10;15.20;;;;;;6228933;28;20242;-66
2021/09/24 12:34:43;;;;;;;3.10;2.90;;;48.70;15.20;;;;;;6219403;28;20228;-66
2021/09/24 12:37:47;;;;;;;2.65;2.45;;;48.60;14.90;;;;;;6227445;28;20262;-66
2021/09/24 12:41:09;;;;;;;2.75;2.38;;;48.60;14.70;;;;;;6227681;28;20592;-65
2021/09/24 12:44:14;;;;;;;2.58;2.38;;;48.90;14.50;;;;;;6228425;28;20675;-65
2021/09/24 12:47:21;;;;;;;3.22;2.33;;;49.50;14.30;;;;;;6228874;28;20224;-66
2021/09/24 12:50:25;;;;;;;3.88;2.72;;;49.90;14.40;;;;;;6227804;28;20703;-66
2021/09/24 12:53:34;;;;;;;2.67;2.47;;;50.20;14.40;;;;;;6228151;28;20228;-64
2021/09/24 12:56:38;;;;;;;2.38;2.17;;;50.20;13.90;;;;;;6228067;28;20366;-63
2021/09/24 12:59:45;;;;;;;2.00;1.90;;;49.60;14.10;;;;;;6228450;28;20243;-63
2021/09/24 13:02:48;;;;;;;3.63;2.97;;;50.20;14.00;;;;;;6227625;28;20672;-65
2021/09/24 13:05:53;;;;;;;2.58;2.40;;;49.40;14.30;;;;;;6228311;28;20232;-63
2021/09/24 13:08:57;;;;;;;3.05;2.40;;;49.60;14.10;;;;;;6247125;28;20232;-63
2021/09/24 13:12:01;;;;;;;5.90;2.95;;;49.40;14.10;;;;;;6253104;28;20735;-68
2021/09/24 13:15:09;;;;;;;2.42;2.22;;;48.90;14.40;;;;;;6253874;28;20227;-64
2021/09/24 13:18:12;;;;;;;3.10;2.90;;;48.50;14.80;;;;;;6253411;28;20239;-63
2021/09/24 13:21:18;;;;;;;2.60;2.40;;;47.40;15.30;;;;;;6253035;28;20251;-63
2021/09/24 13:24:21;;;;;;;3.10;2.90;;;46.20;16.10;;;;;;6252531;28;20243;-64
2021/09/24 13:27:24;;;;;;;3.10;2.90;;;44.50;16.80;;;;;;6252454;28;20247;-64
2021/09/24 13:30:28;;;;;;;3.08;2.75;;;42.40;17.50;;;;;;6252155;28;20234;-64
2021/09/24 13:33:32;;;;;;;2.53;2.30;;;40.40;18.80;;;;;;6243813;28;20236;-65
2021/09/24 13:36:35;;;;;;;2.75;2.55;;;38.60;20.30;;;;;;6217414;28;20256;-64
2021/09/24 13:39:39;;;;;;;2.80;2.60;;;37.20;21.60;;;;;;6226919;28;20286;-64
2021/09/24 13:42:42;;;;;;;2.55;2.35;;;35.90;22.80;;;;;;6226690;28;20240;-65
2021/09/24 13:45:47;;;;;;;2.70;2.50;;;34.70;23.40;;;;;;6226917;28;20232;-64
2021/09/24 13:48:50;;;;;;;2.88;2.67;;;33.60;24.50;;;;;;6227057;28;20242;-65
2021/09/24 13:51:53;;;;;;;3.95;2.80;;;32.90;25.50;;;;;;6226539;28;20735;-63
2021/09/24 13:54:56;;;;;;;3.40;2.63;;;32.30;26.20;;;;;;6226922;28;20228;-64
2021/09/24 13:58:00;;;;;;;3.00;2.65;;;31.70;26.50;;;;;;6226724;28;20235;-63
2021/09/24 14:01:04;;;;;;;3.00;2.35;;;31.20;27.20;;;;;;6208884;28;20240;-63
2021/09/24 14:04:09;;;;;;;2.83;2.38;;;30.90;29.40;;;;;;6200260;28;20291;-66
2021/09/24 14:07:14;;;;;;;3.92;2.53;;;30.50;28.10;;;;;;6211546;28;20660;-65
2021/09/24 14:10:17;;;;;;;2.72;2.45;;;30.00;29.80;;;;;;6249471;28;20236;-64
2021/09/24 14:13:21;;;;;;;4.10;2.57;;;29.80;29.20;;;;;;6249605;28;20533;-65
2021/09/24 14:16:26;;;;;;;3.13;2.93;;;29.40;29.60;;;;;;6248056;28;20231;-64
2021/09/24 14:19:29;;;;;;;2.37;2.17;;;29.30;30.00;;;;;;6225410;28;20311;-65
2021/09/24 14:22:32;;;;;;;2.40;2.20;;;28.90;30.80;;;;;;6223050;28;20340;-64
2021/09/24 14:25:36;;;;;;;2.97;2.67;;;28.70;30.70;;;;;;6224211;28;20366;-64
2021/09/24 14:28:39;;;;;;;2.37;2.17;;;28.70;31.10;;;;;;6224350;28;20239;-65
2021/09/24 14:31:44;;;;;;;2.10;1.90;;;28.60;31.80;;;;;;6224401;28;20243;-65
2021/09/24 14:34:47;;;;;;;7.20;2.67;;;28.40;32.40;;;;;;6225172;28;20700;-65
2021/09/24 14:37:50;;;;;;;3.80;2.73;;;28.40;33.30;;;;;;6221463;28;20251;-65
2021/09/24 14:40:53;;;;;;;2.80;2.60;;;28.30;33.50;;;;;;6225867;28;20671;-65
2021/09/24 14:43:57;;;;;;;3.57;2.80;;;28.10;33.50;;;;;;6225795;28;20204;-65
2021/09/24 14:47:01;;;;;;;3.30;2.57;;;28.10;34.00;;;;;;6226075;28;20215;-65
2021/09/24 14:50:06;;;;;;;3.13;2.30;;;27.90;34.30;;;;;;6226050;28;20204;-64
2021/09/24 14:53:10;;;;;;;3.23;2.93;;;27.80;34.70;;;;;;6225868;28;20200;-64
2021/09/24 14:56:14;;;;;;;2.67;2.47;;;27.70;34.80;;;;;;6225883;28;20243;-64
2021/09/24 14:59:17;;;;;;;2.43;2.20;;;27.60;35.00;;;;;;6225454;28;20688;-64
2021/09/24 15:02:22;;;;;;;2.80;2.60;;;27.60;35.50;;;;;;6225072;28;20239;-63
2021/09/24 15:05:26;;;;;;;2.60;2.10;;;27.50;36.20;;;;;;6225578;28;20231;-65
2021/09/24 15:08:29;;;;;;;3.47;2.70;;;27.50;36.20;;;;;;6241005;28;20232;-65
2021/09/24 15:11:32;;;;;;;3.40;3.10;;;27.50;36.20;;;;;;6249830;28;20263;-64
2021/09/24 15:14:35;;;;;;;4.07;2.67;;;27.40;36.50;;;;;;6249650;28;20231;-65
2021/09/24 15:17:40;;;;;;;2.53;2.33;;;27.30;36.50;;;;;;6239650;28;20713;-65
2021/09/24 15:20:43;;;;;;;3.50;3.20;;;27.30;36.40;;;;;;6225255;28;20601;-64
2021/09/24 15:23:46;;;;;;;5.10;2.57;;;27.10;36.40;;;;;;6225392;28;20244;-66
2021/09/24 15:26:50;;;;;;;6.17;2.97;;;27.20;37.00;;;;;;6225705;28;20239;-64
2021/09/24 15:29:53;;;;;;;2.60;2.20;;;27.10;36.90;;;;;;6224874;28;20235;-67
2021/09/24 15:32:58;;;;;;;4.53;2.90;;;27.10;37.50;;;;;;6225359;28;20538;-64
2021/09/24 15:36:01;;;;;;;3.47;2.73;;;26.90;38.10;;;;;;6225070;28;20239;-62
2021/09/24 15:39:06;;;;;;;4.27;2.63;;;26.90;37.90;;;;;;6226045;28;20228;-63
2021/09/24 15:42:10;;;;;;;2.50;2.30;;;26.80;38.30;;;;;;6224579;28;20247;-64
2021/09/24 15:45:14;;;;;;;3.10;2.80;;;26.80;38.30;;;;;;6225301;28;20251;-63
2021/09/24 15:48:19;;;;;;;3.30;3.00;;;26.70;38.60;;;;;;6224920;28;20240;-62
2021/09/24 15:51:22;;;;;;;3.20;2.90;;;26.70;39.40;;;;;;6224713;28;20236;-62
2021/09/24 15:54:25;;;;;;;2.80;2.60;;;26.60;39.00;;;;;;6225344;28;20239;-64
2021/09/24 15:57:29;;;;;;;3.03;2.80;;;26.60;39.20;;;;;;6225345;28;20694;-62
2021/09/24 16:00:32;;;;;;;2.63;2.43;;;26.50;39.40;;;;;;6225231;28;20668;-63